sensor_id;sensor_type;location;lat;lon;timestamp;temperature;humidity
11639;DHT22;5875;35.940;126.892;2023-03-23T00:01:13;14.70;99.90
11639;DHT22;5875;35.940;126.892;2023-03-23T00:03:41;14.80;99.90
11639;DHT22;5875;35.940;126.892;2023-03-23T00:06:09;14.80;99.90
11639;DHT22;5875;35.940;126.892;2023-03-23T00:08:38;14.70;99.90
11639;DHT22;5875;35.940;126.892;2023-03-23T00:11:17;14.70;99.90
11639;DHT22;5875;35.940;126.892;2023-03-23T00:13:49;14.80;99.90
11639;DHT22;5875;35.940;126.892;2023-03-23T00:16:20;14.80;99.90
11639;DHT22;5875;35.940;126.892;2023-03-23T00:18:59;14.80;99.90
11639;DHT22;5875;35.940;126.892;2023-03-23T00:21:29;14.90;99.90
11639;DHT22;5875;35.940;126.892;2023-03-23T00:24:19;14.90;99.90
11639;DHT22;5875;35.940;126.892;2023-03-23T00:26:48;14.90;99.90
11639;DHT22;5875;35.940;126.892;2023-03-23T00:29:20;14.90;99.90
11639;DHT22;5875;35.940;126.892;2023-03-23T00:31:50;14.90;99.90
11639;DHT22;5875;35.940;126.892;2023-03-23T00:34:20;14.90;99.90
11639;DHT22;5875;35.940;126.892;2023-03-23T00:36:49;14.90;99.90
11639;DHT22;5875;35.940;126.892;2023-03-23T00:39:17;14.90;99.90
11639;DHT22;5875;35.940;126.892;2023-03-23T00:41:45;14.90;99.90
11639;DHT22;5875;35.940;126.892;2023-03-23T00:44:16;15.00;99.90
11639;DHT22;5875;35.940;126.892;2023-03-23T00:46:44;15.00;99.90
11639;DHT22;5875;35.940;126.892;2023-03-23T00:49:17;15.00;99.90
11639;DHT22;5875;35.940;126.892;2023-03-23T00:51:45;15.00;99.90
11639;DHT22;5875;35.940;126.892;2023-03-23T00:54:14;14.90;99.90
11639;DHT22;5875;35.940;126.892;2023-03-23T00:56:41;15.00;99.90
11639;DHT22;5875;35.940;126.892;2023-03-23T00:59:09;15.00;99.90
11639;DHT22;5875;35.940;126.892;2023-03-23T01:01:36;15.00;99.90
11639;DHT22;5875;35.940;126.892;2023-03-23T01:04:04;15.10;99.90
11639;DHT22;5875;35.940;126.892;2023-03-23T01:06:36;15.10;99.90
11639;DHT22;5875;35.940;126.892;2023-03-23T01:09:11;15.10;99.90
11639;DHT22;5875;35.940;126.892;2023-03-23T01:11:44;15.20;99.90
11639;DHT22;5875;35.940;126.892;2023-03-23T01:14:13;15.20;99.90
11639;DHT22;5875;35.940;126.892;2023-03-23T01:16:41;15.10;99.90
11639;DHT22;5875;35.940;126.892;2023-03-23T01:19:09;15.20;99.90
11639;DHT22;5875;35.940;126.892;2023-03-23T01:21:37;15.20;99.90
11639;DHT22;5875;35.940;126.892;2023-03-23T01:24:04;15.20;99.90
11639;DHT22;5875;35.940;126.892;2023-03-23T01:26:31;15.20;99.90
11639;DHT22;5875;35.940;126.892;2023-03-23T01:28:58;15.20;99.90
11639;DHT22;5875;35.940;126.892;2023-03-23T01:31:26;15.20;99.90
11639;DHT22;5875;35.940;126.892;2023-03-23T01:33:53;15.30;99.90
11639;DHT22;5875;35.940;126.892;2023-03-23T01:36:24;15.30;99.90
11639;DHT22;5875;35.940;126.892;2023-03-23T01:38:52;15.30;99.90
11639;DHT22;5875;35.940;126.892;2023-03-23T01:41:20;15.40;99.90
11639;DHT22;5875;35.940;126.892;2023-03-23T01:43:56;15.40;99.90
11639;DHT22;5875;35.940;126.892;2023-03-23T01:46:26;15.40;99.90
11639;DHT22;5875;35.940;126.892;2023-03-23T01:48:56;15.40;99.90
11639;DHT22;5875;35.940;126.892;2023-03-23T01:51:24;15.40;99.90
11639;DHT22;5875;35.940;126.892;2023-03-23T01:54:00;15.40;99.90
11639;DHT22;5875;35.940;126.892;2023-03-23T01:56:41;15.50;99.90
11639;DHT22;5875;35.940;126.892;2023-03-23T01:59:12;15.50;99.90
11639;DHT22;5875;35.940;126.892;2023-03-23T02:01:40;15.60;99.90
11639;DHT22;5875;35.940;126.892;2023-03-23T02:04:15;15.70;99.90
11639;DHT22;5875;35.940;126.892;2023-03-23T02:06:43;15.70;99.90
11639;DHT22;5875;35.940;126.892;2023-03-23T02:09:12;15.80;99.90
11639;DHT22;5875;35.940;126.892;2023-03-23T02:11:49;15.80;99.90
11639;DHT22;5875;35.940;126.892;2023-03-23T02:14:19;15.80;99.90
11639;DHT22;5875;35.940;126.892;2023-03-23T02:22:47;15.90;99.90
11639;DHT22;5875;35.940;126.892;2023-03-23T02:33:53;16.50;99.90
11639;DHT22;5875;35.940;126.892;2023-03-23T02:36:36;16.60;99.90
11639;DHT22;5875;35.940;126.892;2023-03-23T02:39:29;16.70;99.90
11639;DHT22;5875;35.940;126.892;2023-03-23T02:42:04;16.80;99.90
11639;DHT22;5875;35.940;126.892;2023-03-23T02:44:34;16.90;99.90
11639;DHT22;5875;35.940;126.892;2023-03-23T02:47:05;17.00;99.90
11639;DHT22;5875;35.940;126.892;2023-03-23T02:49:36;17.00;99.90
11639;DHT22;5875;35.940;126.892;2023-03-23T02:52:09;17.00;99.90
11639;DHT22;5875;35.940;126.892;2023-03-23T02:54:39;17.10;99.90
11639;DHT22;5875;35.940;126.892;2023-03-23T02:57:07;17.20;99.90
11639;DHT22;5875;35.940;126.892;2023-03-23T02:59:35;17.20;99.90
11639;DHT22;5875;35.940;126.892;2023-03-23T03:02:23;17.30;99.90
11639;DHT22;5875;35.940;126.892;2023-03-23T03:05:20;17.40;99.90
11639;DHT22;5875;35.940;126.892;2023-03-23T03:10:47;17.50;99.90
11639;DHT22;5875;35.940;126.892;2023-03-23T03:14:27;17.70;99.90
11639;DHT22;5875;35.940;126.892;2023-03-23T03:21:32;18.50;99.90
11639;DHT22;5875;35.940;126.892;2023-03-23T03:24:02;18.70;99.90
11639;DHT22;5875;35.940;126.892;2023-03-23T03:26:32;18.90;99.90
11639;DHT22;5875;35.940;126.892;2023-03-23T03:29:01;19.10;99.90
11639;DHT22;5875;35.940;126.892;2023-03-23T03:31:34;19.20;99.90
11639;DHT22;5875;35.940;126.892;2023-03-23T03:34:04;19.30;99.90
11639;DHT22;5875;35.940;126.892;2023-03-23T03:36:33;19.30;99.90
11639;DHT22;5875;35.940;126.892;2023-03-23T03:39:04;19.20;99.90
11639;DHT22;5875;35.940;126.892;2023-03-23T03:41:34;19.20;99.90
11639;DHT22;5875;35.940;126.892;2023-03-23T03:44:03;19.30;99.90
11639;DHT22;5875;35.940;126.892;2023-03-23T03:46:35;19.40;99.90
11639;DHT22;5875;35.940;126.892;2023-03-23T03:49:04;19.50;99.90
11639;DHT22;5875;35.940;126.892;2023-03-23T03:51:32;19.50;99.90
11639;DHT22;5875;35.940;126.892;2023-03-23T03:53:59;19.60;99.90
11639;DHT22;5875;35.940;126.892;2023-03-23T03:56:27;19.60;99.90
11639;DHT22;5875;35.940;126.892;2023-03-23T03:58:54;19.70;99.90
11639;DHT22;5875;35.940;126.892;2023-03-23T04:01:22;19.80;99.90
11639;DHT22;5875;35.940;126.892;2023-03-23T04:03:51;20.00;99.90
11639;DHT22;5875;35.940;126.892;2023-03-23T04:06:19;20.30;99.90
11639;DHT22;5875;35.940;126.892;2023-03-23T04:08:46;20.30;99.90
11639;DHT22;5875;35.940;126.892;2023-03-23T04:11:14;20.40;99.90
11639;DHT22;5875;35.940;126.892;2023-03-23T04:13:41;20.50;99.90
11639;DHT22;5875;35.940;126.892;2023-03-23T04:16:09;20.60;99.90
11639;DHT22;5875;35.940;126.892;2023-03-23T04:18:36;20.60;99.90
11639;DHT22;5875;35.940;126.892;2023-03-23T04:21:05;20.70;99.90
11639;DHT22;5875;35.940;126.892;2023-03-23T04:23:35;20.80;99.90
11639;DHT22;5875;35.940;126.892;2023-03-23T04:26:03;20.80;99.90
11639;DHT22;5875;35.940;126.892;2023-03-23T04:28:30;20.90;99.90
11639;DHT22;5875;35.940;126.892;2023-03-23T04:31:00;20.90;99.90
11639;DHT22;5875;35.940;126.892;2023-03-23T04:33:29;21.00;99.90
11639;DHT22;5875;35.940;126.892;2023-03-23T04:36:00;21.10;99.90
11639;DHT22;5875;35.940;126.892;2023-03-23T04:38:29;21.20;99.90
11639;DHT22;5875;35.940;126.892;2023-03-23T04:40:59;21.40;99.90
11639;DHT22;5875;35.940;126.892;2023-03-23T04:43:28;21.40;99.90
11639;DHT22;5875;35.940;126.892;2023-03-23T04:45:57;21.60;99.90
11639;DHT22;5875;35.940;126.892;2023-03-23T04:48:29;21.60;99.90
11639;DHT22;5875;35.940;126.892;2023-03-23T04:51:01;21.60;99.90
11639;DHT22;5875;35.940;126.892;2023-03-23T04:53:30;21.70;99.90
11639;DHT22;5875;35.940;126.892;2023-03-23T04:55:57;21.70;99.90
11639;DHT22;5875;35.940;126.892;2023-03-23T04:58:24;21.80;99.90
11639;DHT22;5875;35.940;126.892;2023-03-23T05:00:58;21.80;99.90
11639;DHT22;5875;35.940;126.892;2023-03-23T05:03:26;21.60;99.90
11639;DHT22;5875;35.940;126.892;2023-03-23T05:05:53;21.70;99.90
11639;DHT22;5875;35.940;126.892;2023-03-23T05:08:22;21.90;99.90
11639;DHT22;5875;35.940;126.892;2023-03-23T05:10:58;21.90;99.90
11639;DHT22;5875;35.940;126.892;2023-03-23T05:13:29;22.00;99.90
11639;DHT22;5875;35.940;126.892;2023-03-23T05:15:56;22.10;99.90
11639;DHT22;5875;35.940;126.892;2023-03-23T05:18:23;22.00;99.90
11639;DHT22;5875;35.940;126.892;2023-03-23T05:20:52;22.00;99.90
11639;DHT22;5875;35.940;126.892;2023-03-23T05:23:19;22.00;99.90
11639;DHT22;5875;35.940;126.892;2023-03-23T05:25:58;21.70;99.90
11639;DHT22;5875;35.940;126.892;2023-03-23T05:28:29;21.70;99.90
11639;DHT22;5875;35.940;126.892;2023-03-23T05:30:57;21.70;99.90
11639;DHT22;5875;35.940;126.892;2023-03-23T05:33:24;21.50;99.90
11639;DHT22;5875;35.940;126.892;2023-03-23T05:35:51;21.20;99.90
11639;DHT22;5875;35.940;126.892;2023-03-23T05:38:19;21.20;99.90
11639;DHT22;5875;35.940;126.892;2023-03-23T05:40:46;21.20;99.90
11639;DHT22;5875;35.940;126.892;2023-03-23T05:43:13;21.20;99.90
11639;DHT22;5875;35.940;126.892;2023-03-23T05:45:40;21.20;99.90
11639;DHT22;5875;35.940;126.892;2023-03-23T05:48:08;21.20;99.90
11639;DHT22;5875;35.940;126.892;2023-03-23T05:50:35;21.20;99.90
11639;DHT22;5875;35.940;126.892;2023-03-23T05:53:02;21.10;99.90
11639;DHT22;5875;35.940;126.892;2023-03-23T05:55:34;21.20;99.90
11639;DHT22;5875;35.940;126.892;2023-03-23T05:58:01;21.20;99.90
11639;DHT22;5875;35.940;126.892;2023-03-23T06:00:28;21.10;99.90
11639;DHT22;5875;35.940;126.892;2023-03-23T06:02:57;21.00;99.90
11639;DHT22;5875;35.940;126.892;2023-03-23T06:05:24;21.20;99.90
11639;DHT22;5875;35.940;126.892;2023-03-23T06:07:52;21.10;99.90
11639;DHT22;5875;35.940;126.892;2023-03-23T06:10:20;21.10;99.90
11639;DHT22;5875;35.940;126.892;2023-03-23T06:12:49;21.10;99.90
11639;DHT22;5875;35.940;126.892;2023-03-23T06:15:18;21.00;99.90
11639;DHT22;5875;35.940;126.892;2023-03-23T06:17:45;20.80;99.90
11639;DHT22;5875;35.940;126.892;2023-03-23T06:20:12;20.70;99.90
11639;DHT22;5875;35.940;126.892;2023-03-23T06:22:40;20.50;99.90
11639;DHT22;5875;35.940;126.892;2023-03-23T06:25:09;20.50;99.90
11639;DHT22;5875;35.940;126.892;2023-03-23T06:27:37;20.40;99.90
11639;DHT22;5875;35.940;126.892;2023-03-23T06:30:05;20.40;99.90
11639;DHT22;5875;35.940;126.892;2023-03-23T06:32:33;20.60;99.90
11639;DHT22;5875;35.940;126.892;2023-03-23T06:35:01;20.50;99.90
11639;DHT22;5875;35.940;126.892;2023-03-23T06:37:30;20.40;99.90
11639;DHT22;5875;35.940;126.892;2023-03-23T06:39:57;20.30;99.90
11639;DHT22;5875;35.940;126.892;2023-03-23T06:42:25;20.50;99.90
11639;DHT22;5875;35.940;126.892;2023-03-23T06:44:52;20.50;99.90
11639;DHT22;5875;35.940;126.892;2023-03-23T06:47:23;20.60;99.90
11639;DHT22;5875;35.940;126.892;2023-03-23T06:49:50;20.50;99.90
11639;DHT22;5875;35.940;126.892;2023-03-23T06:52:18;20.30;99.90
11639;DHT22;5875;35.940;126.892;2023-03-23T06:54:45;20.20;99.90
11639;DHT22;5875;35.940;126.892;2023-03-23T06:57:12;20.20;99.90
11639;DHT22;5875;35.940;126.892;2023-03-23T06:59:39;20.40;99.90
11639;DHT22;5875;35.940;126.892;2023-03-23T07:02:12;20.50;99.90
11639;DHT22;5875;35.940;126.892;2023-03-23T07:04:43;20.70;99.90
11639;DHT22;5875;35.940;126.892;2023-03-23T07:07:11;20.80;99.90
11639;DHT22;5875;35.940;126.892;2023-03-23T07:09:40;20.80;99.90
11639;DHT22;5875;35.940;126.892;2023-03-23T07:12:08;20.60;99.90
11639;DHT22;5875;35.940;126.892;2023-03-23T07:14:36;20.60;99.90
11639;DHT22;5875;35.940;126.892;2023-03-23T07:17:04;20.40;99.90
11639;DHT22;5875;35.940;126.892;2023-03-23T07:19:32;20.30;99.90
11639;DHT22;5875;35.940;126.892;2023-03-23T07:21:59;20.30;99.90
11639;DHT22;5875;35.940;126.892;2023-03-23T07:24:26;20.30;99.90
11639;DHT22;5875;35.940;126.892;2023-03-23T07:26:54;20.20;99.90
11639;DHT22;5875;35.940;126.892;2023-03-23T07:29:22;20.10;99.90
11639;DHT22;5875;35.940;126.892;2023-03-23T07:31:49;20.00;99.90
11639;DHT22;5875;35.940;126.892;2023-03-23T07:34:18;19.90;99.90
11639;DHT22;5875;35.940;126.892;2023-03-23T07:36:46;19.80;99.90
11639;DHT22;5875;35.940;126.892;2023-03-23T07:39:14;19.50;99.90
11639;DHT22;5875;35.940;126.892;2023-03-23T07:41:41;19.30;99.90
11639;DHT22;5875;35.940;126.892;2023-03-23T07:44:08;19.20;99.90
11639;DHT22;5875;35.940;126.892;2023-03-23T07:46:35;18.90;99.90
11639;DHT22;5875;35.940;126.892;2023-03-23T07:49:03;19.00;99.90
11639;DHT22;5875;35.940;126.892;2023-03-23T07:51:34;18.90;99.90
11639;DHT22;5875;35.940;126.892;2023-03-23T07:54:01;18.60;99.90
11639;DHT22;5875;35.940;126.892;2023-03-23T07:56:30;18.50;99.90
11639;DHT22;5875;35.940;126.892;2023-03-23T07:58:57;18.30;99.90
11639;DHT22;5875;35.940;126.892;2023-03-23T08:01:24;18.40;99.90
11639;DHT22;5875;35.940;126.892;2023-03-23T08:03:52;18.30;99.90
11639;DHT22;5875;35.940;126.892;2023-03-23T08:06:21;18.20;99.90
11639;DHT22;5875;35.940;126.892;2023-03-23T08:08:48;18.20;99.90
11639;DHT22;5875;35.940;126.892;2023-03-23T08:11:16;18.00;99.90
11639;DHT22;5875;35.940;126.892;2023-03-23T08:13:44;18.00;99.90
11639;DHT22;5875;35.940;126.892;2023-03-23T08:16:12;17.70;99.90
11639;DHT22;5875;35.940;126.892;2023-03-23T08:26:07;17.60;99.90
11639;DHT22;5875;35.940;126.892;2023-03-23T08:28:36;16.60;99.90
11639;DHT22;5875;35.940;126.892;2023-03-23T08:31:11;16.60;99.90
11639;DHT22;5875;35.940;126.892;2023-03-23T08:33:40;16.60;99.90
11639;DHT22;5875;35.940;126.892;2023-03-23T08:36:10;16.40;99.90
11639;DHT22;5875;35.940;126.892;2023-03-23T08:38:38;16.20;99.90
11639;DHT22;5875;35.940;126.892;2023-03-23T08:41:06;16.20;99.90
11639;DHT22;5875;35.940;126.892;2023-03-23T08:43:34;16.10;99.90
11639;DHT22;5875;35.940;126.892;2023-03-23T08:46:02;16.20;99.90
11639;DHT22;5875;35.940;126.892;2023-03-23T08:48:33;16.20;99.90
11639;DHT22;5875;35.940;126.892;2023-03-23T08:51:03;16.10;99.90
11639;DHT22;5875;35.940;126.892;2023-03-23T08:53:30;16.00;99.90
11639;DHT22;5875;35.940;126.892;2023-03-23T08:56:07;15.90;99.90
11639;DHT22;5875;35.940;126.892;2023-03-23T08:58:35;16.00;99.90
11639;DHT22;5875;35.940;126.892;2023-03-23T09:01:03;15.70;99.90
11639;DHT22;5875;35.940;126.892;2023-03-23T09:03:33;15.40;99.90
11639;DHT22;5875;35.940;126.892;2023-03-23T09:06:06;15.40;99.90
11639;DHT22;5875;35.940;126.892;2023-03-23T09:08:34;15.30;99.90
11639;DHT22;5875;35.940;126.892;2023-03-23T09:11:08;15.40;99.90
11639;DHT22;5875;35.940;126.892;2023-03-23T09:13:37;15.40;99.90
11639;DHT22;5875;35.940;126.892;2023-03-23T09:16:06;15.50;99.90
11639;DHT22;5875;35.940;126.892;2023-03-23T09:18:33;15.30;99.90
11639;DHT22;5875;35.940;126.892;2023-03-23T09:21:02;15.20;99.90
11639;DHT22;5875;35.940;126.892;2023-03-23T09:23:29;15.30;99.90
11639;DHT22;5875;35.940;126.892;2023-03-23T09:25:57;15.20;99.90
11639;DHT22;5875;35.940;126.892;2023-03-23T09:28:24;15.30;99.90
11639;DHT22;5875;35.940;126.892;2023-03-23T09:30:51;15.40;99.90
11639;DHT22;5875;35.940;126.892;2023-03-23T09:33:23;15.10;99.90
11639;DHT22;5875;35.940;126.892;2023-03-23T09:35:50;15.20;99.90
11639;DHT22;5875;35.940;126.892;2023-03-23T09:38:17;15.20;99.90
11639;DHT22;5875;35.940;126.892;2023-03-23T09:49:08;15.00;99.90
11639;DHT22;5875;35.940;126.892;2023-03-23T09:52:18;15.00;99.90
11639;DHT22;5875;35.940;126.892;2023-03-23T09:54:50;14.90;99.90
11639;DHT22;5875;35.940;126.892;2023-03-23T09:57:52;14.90;99.90
11639;DHT22;5875;35.940;126.892;2023-03-23T10:00:29;14.80;99.90
11639;DHT22;5875;35.940;126.892;2023-03-23T10:03:21;14.70;99.90
11639;DHT22;5875;35.940;126.892;2023-03-23T10:05:53;14.60;99.90
11639;DHT22;5875;35.940;126.892;2023-03-23T10:08:30;14.50;99.90
11639;DHT22;5875;35.940;126.892;2023-03-23T10:21:54;14.10;99.90
11639;DHT22;5875;35.940;126.892;2023-03-23T10:24:46;14.00;99.90
11639;DHT22;5875;35.940;126.892;2023-03-23T10:27:30;13.90;99.90
11639;DHT22;5875;35.940;126.892;2023-03-23T10:35:24;13.70;99.90
11639;DHT22;5875;35.940;126.892;2023-03-23T10:48:16;13.60;99.90
11639;DHT22;5875;35.940;126.892;2023-03-23T10:50:46;13.40;99.90
11639;DHT22;5875;35.940;126.892;2023-03-23T10:53:18;13.20;99.90
11639;DHT22;5875;35.940;126.892;2023-03-23T10:55:46;13.40;99.90
11639;DHT22;5875;35.940;126.892;2023-03-23T10:58:30;13.40;99.90
11639;DHT22;5875;35.940;126.892;2023-03-23T11:01:03;12.50;99.90
11639;DHT22;5875;35.940;126.892;2023-03-23T11:03:42;11.70;99.90
11639;DHT22;5875;35.940;126.892;2023-03-23T11:06:23;11.20;99.90
11639;DHT22;5875;35.940;126.892;2023-03-23T11:08:58;10.90;99.90
11639;DHT22;5875;35.940;126.892;2023-03-23T11:11:42;10.70;99.90
11639;DHT22;5875;35.940;126.892;2023-03-23T11:14:17;10.60;99.90
11639;DHT22;5875;35.940;126.892;2023-03-23T11:19:32;10.40;99.90
11639;DHT22;5875;35.940;126.892;2023-03-23T11:24:35;10.30;99.90
11639;DHT22;5875;35.940;126.892;2023-03-23T11:27:04;10.20;99.90
11639;DHT22;5875;35.940;126.892;2023-03-23T11:29:42;10.30;99.90
11639;DHT22;5875;35.940;126.892;2023-03-23T11:32:13;10.40;99.90
11639;DHT22;5875;35.940;126.892;2023-03-23T11:34:43;10.40;99.90
11639;DHT22;5875;35.940;126.892;2023-03-23T11:40:01;10.80;99.90
11639;DHT22;5875;35.940;126.892;2023-03-23T11:54:19;10.40;99.90
11639;DHT22;5875;35.940;126.892;2023-03-23T11:56:48;10.30;99.90
11639;DHT22;5875;35.940;126.892;2023-03-23T11:59:31;10.20;99.90
11639;DHT22;5875;35.940;126.892;2023-03-23T12:13:48;10.00;99.90
11639;DHT22;5875;35.940;126.892;2023-03-23T12:37:04;9.30;99.90
11639;DHT22;5875;35.940;126.892;2023-03-23T12:50:33;9.40;99.90
11639;DHT22;5875;35.940;126.892;2023-03-23T12:53:13;9.40;99.90
11639;DHT22;5875;35.940;126.892;2023-03-23T12:55:48;9.30;99.90
11639;DHT22;5875;35.940;126.892;2023-03-23T12:58:24;9.30;99.90
11639;DHT22;5875;35.940;126.892;2023-03-23T13:01:00;9.30;99.90
11639;DHT22;5875;35.940;126.892;2023-03-23T13:03:48;9.40;99.90
11639;DHT22;5875;35.940;126.892;2023-03-23T13:06:27;9.30;99.90
11639;DHT22;5875;35.940;126.892;2023-03-23T13:11:37;9.20;99.90
11639;DHT22;5875;35.940;126.892;2023-03-23T13:22:39;9.20;99.90
11639;DHT22;5875;35.940;126.892;2023-03-23T13:28:02;9.30;99.90
11639;DHT22;5875;35.940;126.892;2023-03-23T13:30:30;9.30;99.90
11639;DHT22;5875;35.940;126.892;2023-03-23T13:33:05;9.30;99.90
11639;DHT22;5875;35.940;126.892;2023-03-23T13:35:36;9.30;99.90
11639;DHT22;5875;35.940;126.892;2023-03-23T13:38:17;9.40;99.90
11639;DHT22;5875;35.940;126.892;2023-03-23T13:40:46;9.70;99.90
11639;DHT22;5875;35.940;126.892;2023-03-23T13:43:13;9.90;99.90
11639;DHT22;5875;35.940;126.892;2023-03-23T13:45:52;9.80;99.90
11639;DHT22;5875;35.940;126.892;2023-03-23T13:48:24;9.70;99.90
11639;DHT22;5875;35.940;126.892;2023-03-23T13:51:00;9.80;99.90
11639;DHT22;5875;35.940;126.892;2023-03-23T13:53:46;9.80;99.90
11639;DHT22;5875;35.940;126.892;2023-03-23T13:56:35;9.90;99.90
11639;DHT22;5875;35.940;126.892;2023-03-23T13:59:15;9.80;99.90
11639;DHT22;5875;35.940;126.892;2023-03-23T14:01:43;9.80;99.90
11639;DHT22;5875;35.940;126.892;2023-03-23T14:04:16;9.70;99.90
11639;DHT22;5875;35.940;126.892;2023-03-23T14:06:49;9.60;99.90
11639;DHT22;5875;35.940;126.892;2023-03-23T14:09:40;9.60;99.90
11639;DHT22;5875;35.940;126.892;2023-03-23T14:12:26;9.50;99.90
11639;DHT22;5875;35.940;126.892;2023-03-23T14:15:00;9.50;99.90
11639;DHT22;5875;35.940;126.892;2023-03-23T14:17:33;9.60;99.90
11639;DHT22;5875;35.940;126.892;2023-03-23T14:20:06;9.50;99.90
11639;DHT22;5875;35.940;126.892;2023-03-23T14:22:37;9.50;99.90
11639;DHT22;5875;35.940;126.892;2023-03-23T14:25:17;9.30;99.90
11639;DHT22;5875;35.940;126.892;2023-03-23T14:27:45;9.30;99.90
11639;DHT22;5875;35.940;126.892;2023-03-23T14:30:20;9.40;99.90
11639;DHT22;5875;35.940;126.892;2023-03-23T14:32:48;9.40;99.90
11639;DHT22;5875;35.940;126.892;2023-03-23T14:35:23;9.40;99.90
11639;DHT22;5875;35.940;126.892;2023-03-23T14:37:53;9.30;99.90
11639;DHT22;5875;35.940;126.892;2023-03-23T14:40:22;9.40;99.90
11639;DHT22;5875;35.940;126.892;2023-03-23T14:42:50;9.50;99.90
11639;DHT22;5875;35.940;126.892;2023-03-23T14:45:22;9.50;99.90
11639;DHT22;5875;35.940;126.892;2023-03-23T14:50:28;9.50;99.90
11639;DHT22;5875;35.940;126.892;2023-03-23T14:53:18;9.50;99.90
11639;DHT22;5875;35.940;126.892;2023-03-23T14:55:48;9.60;99.90
11639;DHT22;5875;35.940;126.892;2023-03-23T14:58:17;9.50;99.90
11639;DHT22;5875;35.940;126.892;2023-03-23T15:03:18;9.40;99.90
11639;DHT22;5875;35.940;126.892;2023-03-23T15:05:53;9.30;99.90
11639;DHT22;5875;35.940;126.892;2023-03-23T15:08:29;9.40;99.90
11639;DHT22;5875;35.940;126.892;2023-03-23T15:11:05;9.50;99.90
11639;DHT22;5875;35.940;126.892;2023-03-23T15:13:34;9.50;99.90
11639;DHT22;5875;35.940;126.892;2023-03-23T15:16:18;9.30;99.90
11639;DHT22;5875;35.940;126.892;2023-03-23T15:19:05;9.20;99.90
11639;DHT22;5875;35.940;126.892;2023-03-23T15:21:53;9.20;99.90
11639;DHT22;5875;35.940;126.892;2023-03-23T15:24:39;9.20;99.90
11639;DHT22;5875;35.940;126.892;2023-03-23T15:29:52;9.20;99.90
11639;DHT22;5875;35.940;126.892;2023-03-23T15:32:25;9.20;99.90
11639;DHT22;5875;35.940;126.892;2023-03-23T15:34:52;9.30;99.90
11639;DHT22;5875;35.940;126.892;2023-03-23T15:37:27;9.40;99.90
11639;DHT22;5875;35.940;126.892;2023-03-23T15:39:56;9.60;99.90
11639;DHT22;5875;35.940;126.892;2023-03-23T15:42:34;9.50;99.90
11639;DHT22;5875;35.940;126.892;2023-03-23T15:47:45;9.30;99.90
11639;DHT22;5875;35.940;126.892;2023-03-23T15:52:52;9.20;99.90
11639;DHT22;5875;35.940;126.892;2023-03-23T15:55:25;9.10;99.90
11639;DHT22;5875;35.940;126.892;2023-03-23T15:57:56;9.00;99.90
11639;DHT22;5875;35.940;126.892;2023-03-23T16:00:26;9.00;99.90
11639;DHT22;5875;35.940;126.892;2023-03-23T16:02:59;8.90;99.90
11639;DHT22;5875;35.940;126.892;2023-03-23T16:05:27;8.90;99.90
11639;DHT22;5875;35.940;126.892;2023-03-23T16:07:55;8.90;99.90
11639;DHT22;5875;35.940;126.892;2023-03-23T16:10:23;8.90;99.90
11639;DHT22;5875;35.940;126.892;2023-03-23T16:12:51;8.80;99.90
11639;DHT22;5875;35.940;126.892;2023-03-23T16:15:18;8.70;99.90
11639;DHT22;5875;35.940;126.892;2023-03-23T16:17:46;8.70;99.90
11639;DHT22;5875;35.940;126.892;2023-03-23T16:20:19;8.70;99.90
11639;DHT22;5875;35.940;126.892;2023-03-23T16:22:47;8.70;99.90
11639;DHT22;5875;35.940;126.892;2023-03-23T16:25:15;8.70;99.90
11639;DHT22;5875;35.940;126.892;2023-03-23T16:27:44;8.60;99.90
11639;DHT22;5875;35.940;126.892;2023-03-23T16:30:18;8.60;99.90
11639;DHT22;5875;35.940;126.892;2023-03-23T16:32:46;8.60;99.90
11639;DHT22;5875;35.940;126.892;2023-03-23T16:35:14;8.60;99.90
11639;DHT22;5875;35.940;126.892;2023-03-23T16:37:51;8.60;99.90
11639;DHT22;5875;35.940;126.892;2023-03-23T16:40:20;8.60;99.90
11639;DHT22;5875;35.940;126.892;2023-03-23T16:42:47;8.60;99.90
11639;DHT22;5875;35.940;126.892;2023-03-23T16:45:16;8.60;99.90
11639;DHT22;5875;35.940;126.892;2023-03-23T16:47:45;8.50;99.90
11639;DHT22;5875;35.940;126.892;2023-03-23T16:50:15;8.50;99.90
11639;DHT22;5875;35.940;126.892;2023-03-23T16:52:44;8.60;99.90
11639;DHT22;5875;35.940;126.892;2023-03-23T16:55:14;8.80;99.90
11639;DHT22;5875;35.940;126.892;2023-03-23T16:57:41;8.90;99.90
11639;DHT22;5875;35.940;126.892;2023-03-23T17:00:12;8.90;99.90
11639;DHT22;5875;35.940;126.892;2023-03-23T17:02:42;8.70;99.90
11639;DHT22;5875;35.940;126.892;2023-03-23T17:05:10;8.70;99.90
11639;DHT22;5875;35.940;126.892;2023-03-23T17:07:38;8.70;99.90
11639;DHT22;5875;35.940;126.892;2023-03-23T17:10:08;8.80;99.90
11639;DHT22;5875;35.940;126.892;2023-03-23T17:12:35;8.80;99.90
11639;DHT22;5875;35.940;126.892;2023-03-23T17:15:03;8.90;99.90
11639;DHT22;5875;35.940;126.892;2023-03-23T17:17:31;9.00;99.90
11639;DHT22;5875;35.940;126.892;2023-03-23T17:19:58;8.80;99.90
11639;DHT22;5875;35.940;126.892;2023-03-23T17:22:26;8.70;99.90
11639;DHT22;5875;35.940;126.892;2023-03-23T17:24:53;8.50;99.90
11639;DHT22;5875;35.940;126.892;2023-03-23T17:27:22;8.40;99.90
11639;DHT22;5875;35.940;126.892;2023-03-23T17:29:50;8.40;99.90
11639;DHT22;5875;35.940;126.892;2023-03-23T17:32:18;8.40;99.90
11639;DHT22;5875;35.940;126.892;2023-03-23T17:34:47;8.40;99.90
11639;DHT22;5875;35.940;126.892;2023-03-23T17:37:14;8.40;99.90
11639;DHT22;5875;35.940;126.892;2023-03-23T17:39:42;8.60;99.90
11639;DHT22;5875;35.940;126.892;2023-03-23T17:42:09;8.80;99.90
11639;DHT22;5875;35.940;126.892;2023-03-23T17:44:36;9.00;99.90
11639;DHT22;5875;35.940;126.892;2023-03-23T17:47:04;9.00;99.90
11639;DHT22;5875;35.940;126.892;2023-03-23T17:49:31;9.10;99.90
11639;DHT22;5875;35.940;126.892;2023-03-23T17:51:59;9.10;99.90
11639;DHT22;5875;35.940;126.892;2023-03-23T17:54:26;9.00;99.90
11639;DHT22;5875;35.940;126.892;2023-03-23T17:56:55;8.80;99.90
11639;DHT22;5875;35.940;126.892;2023-03-23T17:59:24;8.70;99.90
11639;DHT22;5875;35.940;126.892;2023-03-23T18:01:52;8.60;99.90
11639;DHT22;5875;35.940;126.892;2023-03-23T18:04:20;8.50;99.90
11639;DHT22;5875;35.940;126.892;2023-03-23T18:06:48;8.50;99.90
11639;DHT22;5875;35.940;126.892;2023-03-23T18:09:15;8.50;99.90
11639;DHT22;5875;35.940;126.892;2023-03-23T18:11:42;8.60;99.90
11639;DHT22;5875;35.940;126.892;2023-03-23T18:14:09;8.50;99.90
11639;DHT22;5875;35.940;126.892;2023-03-23T18:16:36;8.50;99.90
11639;DHT22;5875;35.940;126.892;2023-03-23T18:19:03;8.50;99.90